Nantucket Memorial Airport
KACK : now visible

Airfield :











YOU CAN JOIN US ON...

 
LOGIN :

Register | Disclaimer

   EN    FR    IT 

 









Legend :    VFR   Marginal VFR   IFR   Intensive IFR   Very Intensive IFR
Visi :
Ceiling :
>= 8 km
>= 3000ft
5 to 8 km
1000 to 3000 ft
1500m to 5 km
500 to 1000 ft
800 to 1500m
200 to 500 ft
< 800m
< 200 ft
Symbols :   Thunderstorms  Fog  Heavy snow  Heavy precipitations  Wind > 20 kt






- Airport Elevation : 47 ft
- IATA code : ACK


KACK - Nantucket Memorial

CURRENT METAR :
  • 221653Z 07012KT 10SM SCT015 A3004 RMK AO2 SLP174 $

EXPIRED METARs :
  • 221553Z 07011KT 10SM BKN015 OVC027 16/11 A3006 RMK AO2 SLP179 T01610111 $
  • 221453Z 05014KT 10SM BKN024 BKN031 16/11 A3009 RMK AO2 SLP190 T01610106 50002 $

TAF KACK
Valid from the 22 at 12:00 until the 23 at 12:00 UTC


221129Z 2212/2312 06014KT P6SM BKN015
FM221600 06013G21KT P6SM VCSH BKN015
FM222000 06015G21KT 3SM -RA BR OVC008
FM230100 08015G23KT 1/4SM -RA FG OVC003
FM230300 10014G21KT 3/4SM -RA BR OVC003
FM230700 15010G19KT 1 1/2SM BR VCSH OVC001
FM230900 18009KT 2SM -SHRA BR OVC003



MET'MAP, your aeronautical weather chart ! - Copyright ORBIFLY December 2007 - Disclaimer

ORBIFLY MET'MAP TEAM :

Programming & Development : Alexandra Zaïnal
Concept & Development : Baudouin d'Aumeries
Co-Development & Prog : Marc-Olivier Méhu
Technical & hardware support : Manuel Goepfert

Contact : metmap@orbifly.com




SOURCES & CREDITS :

   NOAA       Earth
Advisory